createdAt,value
2018-01-26T00:00:55.789Z,7.30
2018-01-26T00:03:24.181Z,7.30
2018-01-26T00:05:52.593Z,7.30
2018-01-26T00:08:21.885Z,7.30
2018-01-26T00:10:50.418Z,7.30
2018-01-26T00:13:19.001Z,7.30
2018-01-26T00:15:47.421Z,7.40
2018-01-26T00:18:15.859Z,7.30
2018-01-26T00:20:44.256Z,7.30
2018-01-26T00:23:13.044Z,7.30
2018-01-26T00:25:41.605Z,7.30
2018-01-26T00:28:10.115Z,7.20
2018-01-26T00:30:38.537Z,7.20
2018-01-26T00:33:06.915Z,7.20
2018-01-26T00:35:35.302Z,7.10
2018-01-26T00:38:03.668Z,7.00
2018-01-26T00:40:33.025Z,6.90
2018-01-26T00:43:01.376Z,6.90
2018-01-26T00:45:29.740Z,6.80
2018-01-26T00:47:58.128Z,6.80
2018-01-26T00:50:26.493Z,6.80
2018-01-26T00:52:54.873Z,6.80
2018-01-26T00:55:23.241Z,6.80
2018-01-26T00:57:51.728Z,6.80
2018-01-26T01:00:20.088Z,6.90
2018-01-26T01:02:49.233Z,6.90
2018-01-26T01:05:17.632Z,6.90
2018-01-26T01:07:46.250Z,6.90
2018-01-26T01:10:15.412Z,6.90
2018-01-26T01:12:43.776Z,6.90
2018-01-26T01:15:12.470Z,6.90
2018-01-26T01:17:40.861Z,7.00
2018-01-26T01:20:10.032Z,7.00
2018-01-26T01:22:38.417Z,6.90
2018-01-26T01:25:06.885Z,7.00
2018-01-26T01:27:36.232Z,7.00
2018-01-26T01:30:04.913Z,7.00
2018-01-26T01:32:33.611Z,7.00
2018-01-26T01:35:02.782Z,7.00
2018-01-26T01:37:32.793Z,6.90
2018-01-26T01:40:01.185Z,6.90
2018-01-26T01:42:29.658Z,6.90
2018-01-26T01:44:58.047Z,6.80
2018-01-26T01:47:26.529Z,6.80
2018-01-26T01:49:54.911Z,6.80
2018-01-26T01:52:23.368Z,6.80
2018-01-26T01:54:51.917Z,6.70
2018-01-26T01:57:20.272Z,6.70
2018-01-26T01:59:49.392Z,6.60
2018-01-26T02:02:17.773Z,6.60
2018-01-26T02:04:46.161Z,6.60
2018-01-26T02:07:14.540Z,6.50
2018-01-26T02:09:42.909Z,6.50
2018-01-26T02:12:11.262Z,6.50
2018-01-26T02:14:40.408Z,6.30
2018-01-26T02:17:08.813Z,6.20
2018-01-26T02:19:37.961Z,6.30
2018-01-26T02:22:06.319Z,6.30
2018-01-26T02:24:34.722Z,6.20
2018-01-26T02:27:03.128Z,6.20
2018-01-26T02:29:31.484Z,6.20
2018-01-26T02:31:59.868Z,6.10
2018-01-26T02:34:29.328Z,6.10
2018-01-26T02:36:57.724Z,6.10
2018-01-26T02:39:26.766Z,6.10
2018-01-26T02:41:55.763Z,6.00
2018-01-26T02:44:24.128Z,6.00
2018-01-26T02:46:52.489Z,5.90
2018-01-26T02:49:20.864Z,5.90
2018-01-26T02:51:49.224Z,5.80
2018-01-26T02:54:17.608Z,5.70
2018-01-26T02:56:45.985Z,5.70
2018-01-26T02:59:14.565Z,5.70
2018-01-26T03:01:42.937Z,5.60
2018-01-26T03:04:11.545Z,5.70
2018-01-26T03:06:39.921Z,5.70
2018-01-26T03:09:08.710Z,5.70
2018-01-26T03:11:37.621Z,5.60
2018-01-26T03:14:05.981Z,5.60
2018-01-26T03:16:35.611Z,5.50
2018-01-26T03:19:03.997Z,5.50
2018-01-26T03:21:32.604Z,5.50
2018-01-26T03:24:02.490Z,5.50
2018-01-26T03:26:31.629Z,5.50
2018-01-26T03:29:00.755Z,5.40
2018-01-26T03:31:29.628Z,5.40
2018-01-26T03:33:58.624Z,5.40
2018-01-26T03:36:27.447Z,5.40
2018-01-26T03:38:56.964Z,5.40
2018-01-26T03:41:25.854Z,5.40
2018-01-26T03:43:54.734Z,5.50
2018-01-26T03:46:23.543Z,5.50
2018-01-26T03:48:51.902Z,5.50
2018-01-26T03:51:20.547Z,5.50
2018-01-26T03:53:48.900Z,5.50
2018-01-26T03:56:18.024Z,5.50
2018-01-26T03:58:46.410Z,5.50
2018-01-26T04:01:14.780Z,5.40
2018-01-26T04:03:43.168Z,5.40
2018-01-26T04:06:11.537Z,5.40
2018-01-26T04:08:39.965Z,5.40
2018-01-26T04:11:08.334Z,5.40
2018-01-26T04:13:36.700Z,5.40
2018-01-26T04:16:05.099Z,5.40
2018-01-26T04:18:33.488Z,5.40
2018-01-26T04:21:01.888Z,5.40
2018-01-26T04:23:30.255Z,5.40
2018-01-26T04:25:59.584Z,5.30
2018-01-26T04:28:27.945Z,5.30
2018-01-26T04:30:56.313Z,5.20
2018-01-26T04:33:25.468Z,5.20
2018-01-26T04:35:53.845Z,5.20
2018-01-26T04:38:22.229Z,5.20
2018-01-26T04:40:50.593Z,5.10
2018-01-26T04:43:19.357Z,5.10
2018-01-26T04:45:47.753Z,5.10
2018-01-26T04:48:16.120Z,5.10
2018-01-26T04:50:44.506Z,5.00
2018-01-26T04:53:12.864Z,5.00
2018-01-26T04:55:41.264Z,5.00
2018-01-26T04:58:09.620Z,4.90
2018-01-26T05:00:38.023Z,4.90
2018-01-26T05:03:06.385Z,4.90
2018-01-26T05:05:34.741Z,4.80
2018-01-26T05:08:03.116Z,4.90
2018-01-26T05:10:31.509Z,4.90
2018-01-26T05:12:59.892Z,4.90
2018-01-26T05:15:28.262Z,4.80
2018-01-26T05:17:56.768Z,4.80
2018-01-26T05:20:25.133Z,4.80
2018-01-26T05:22:53.493Z,4.80
2018-01-26T05:25:21.868Z,4.80
2018-01-26T05:27:50.998Z,4.80
2018-01-26T05:30:19.377Z,4.80
2018-01-26T05:32:47.740Z,4.70
2018-01-26T05:35:16.439Z,4.80
2018-01-26T05:37:44.799Z,4.70
2018-01-26T05:40:13.165Z,4.70
2018-01-26T05:42:41.552Z,4.60
2018-01-26T05:45:09.933Z,4.60
2018-01-26T05:47:38.321Z,4.70
2018-01-26T05:50:06.710Z,4.60
2018-01-26T05:52:35.487Z,4.60
2018-01-26T05:55:03.848Z,4.60
2018-01-26T05:57:32.210Z,4.60
2018-01-26T06:00:01.353Z,4.60
2018-01-26T06:02:29.705Z,4.60
2018-01-26T06:04:58.087Z,4.50
2018-01-26T06:07:26.458Z,4.50
2018-01-26T06:09:55.274Z,4.50
2018-01-26T06:12:23.630Z,4.50
2018-01-26T06:14:52.024Z,4.50
2018-01-26T06:17:20.420Z,4.50
2018-01-26T06:19:48.817Z,4.40
2018-01-26T06:22:17.213Z,4.40
2018-01-26T06:24:45.585Z,4.40
2018-01-26T06:27:14.023Z,4.30
2018-01-26T06:29:48.808Z,4.20
2018-01-26T06:32:17.993Z,4.20
2018-01-26T06:34:46.400Z,4.20
2018-01-26T06:37:14.763Z,4.20
2018-01-26T06:39:43.930Z,4.20
2018-01-26T06:42:12.294Z,4.20
2018-01-26T06:44:40.734Z,4.20
2018-01-26T06:47:09.098Z,4.20
2018-01-26T06:49:38.424Z,4.10
2018-01-26T06:52:06.787Z,4.10
2018-01-26T06:54:35.193Z,4.10
2018-01-26T06:57:03.565Z,4.10
2018-01-26T06:59:31.933Z,4.10
2018-01-26T07:02:00.322Z,4.20
2018-01-26T07:04:28.717Z,4.20
2018-01-26T07:06:57.121Z,4.20
2018-01-26T07:09:25.500Z,4.20
2018-01-26T07:11:53.869Z,4.30
2018-01-26T07:14:22.257Z,4.40
2018-01-26T07:16:50.637Z,4.40
2018-01-26T07:19:19.035Z,4.40
2018-01-26T07:21:47.421Z,4.50
2018-01-26T07:24:17.058Z,4.60
2018-01-26T07:26:45.426Z,4.60
2018-01-26T07:29:13.793Z,4.60
2018-01-26T07:31:42.176Z,4.70
2018-01-26T07:34:10.537Z,4.80
2018-01-26T07:36:39.695Z,4.70
2018-01-26T07:39:08.098Z,4.80
2018-01-26T07:41:36.505Z,4.70
2018-01-26T07:44:04.868Z,4.70
2018-01-26T07:46:34.018Z,4.80
2018-01-26T07:49:02.404Z,4.80
2018-01-26T07:51:30.766Z,4.80
2018-01-26T07:53:59.877Z,4.80
2018-01-26T07:56:28.240Z,4.80
2018-01-26T07:58:57.018Z,4.90
2018-01-26T08:01:25.378Z,4.90
2018-01-26T08:03:53.749Z,4.90
2018-01-26T08:06:22.138Z,4.90
2018-01-26T08:08:50.513Z,4.80
2018-01-26T08:11:18.917Z,4.90
2018-01-26T08:13:47.274Z,4.90
2018-01-26T08:16:15.901Z,4.90
2018-01-26T08:18:44.269Z,4.90
2018-01-26T08:21:12.666Z,4.90
2018-01-26T08:23:41.103Z,4.90
2018-01-26T08:26:10.293Z,4.90
2018-01-26T08:28:38.682Z,4.80
2018-01-26T08:31:07.054Z,4.80
2018-01-26T08:33:35.481Z,4.80
2018-01-26T08:36:03.844Z,4.80
2018-01-26T08:38:32.211Z,4.90
2018-01-26T08:41:00.643Z,5.10
2018-01-26T08:43:29.781Z,5.40
2018-01-26T08:45:58.189Z,5.30
2018-01-26T08:48:26.554Z,5.40
2018-01-26T08:50:54.961Z,5.60
2018-01-26T08:53:23.329Z,5.80
2018-01-26T08:55:51.710Z,6.00
2018-01-26T08:58:20.102Z,6.20
2018-01-26T09:00:49.233Z,6.70
2018-01-26T09:03:17.622Z,6.70
2018-01-26T09:05:45.988Z,7.10
2018-01-26T09:08:14.615Z,7.40
2018-01-26T09:10:42.976Z,7.90
2018-01-26T09:13:11.354Z,8.40
2018-01-26T09:15:39.750Z,8.90
2018-01-26T09:18:08.140Z,9.40
2018-01-26T09:20:36.532Z,9.70
2018-01-26T09:23:05.671Z,10.20
2018-01-26T09:25:34.050Z,10.20
2018-01-26T09:28:02.601Z,10.30
2018-01-26T09:30:31.744Z,10.50
2018-01-26T09:33:00.149Z,10.50
2018-01-26T09:35:28.529Z,10.60
2018-01-26T09:37:56.941Z,10.80
2018-01-26T09:40:25.332Z,11.30
2018-01-26T09:42:53.706Z,11.80
2018-01-26T09:45:22.110Z,12.60
2018-01-26T09:47:50.501Z,13.30
2018-01-26T09:50:18.891Z,14.10
2018-01-26T09:52:48.057Z,15.40
2018-01-26T09:55:16.642Z,15.40
2018-01-26T09:57:45.025Z,16.10
2018-01-26T10:00:13.407Z,16.50
2018-01-26T10:02:41.828Z,16.70
2018-01-26T10:05:10.997Z,16.70
2018-01-26T10:07:39.418Z,16.70
2018-01-26T10:10:07.797Z,16.40
2018-01-26T10:12:36.242Z,16.10
2018-01-26T10:15:04.629Z,15.50
2018-01-26T10:17:33.010Z,15.10
2018-01-26T10:20:01.405Z,14.80
2018-01-26T10:22:30.585Z,14.40
2018-01-26T10:24:59.013Z,14.30
2018-01-26T10:27:27.403Z,14.10
2018-01-26T10:29:55.886Z,13.70
2018-01-26T10:32:24.274Z,13.40
2018-01-26T10:34:52.674Z,13.30
2018-01-26T10:37:21.318Z,13.10
2018-01-26T10:39:49.706Z,13.20
2018-01-26T10:42:18.081Z,13.20
2018-01-26T10:44:46.476Z,13.20
2018-01-26T10:47:14.881Z,13.20
2018-01-26T10:49:43.361Z,13.10
2018-01-26T10:52:13.240Z,13.10
2018-01-26T10:54:41.614Z,13.10
2018-01-26T10:57:10.024Z,13.30
2018-01-26T10:59:38.397Z,13.60
2018-01-26T11:02:07.054Z,13.90
2018-01-26T11:04:36.402Z,14.50
2018-01-26T11:07:05.547Z,16.10
2018-01-26T11:09:33.949Z,16.00
2018-01-26T11:12:02.329Z,16.80
2018-01-26T11:14:30.890Z,18.00
2018-01-26T11:16:59.262Z,19.40
2018-01-26T11:19:27.660Z,20.30
2018-01-26T11:21:56.053Z,20.60
2018-01-26T11:24:24.425Z,20.70
2018-01-26T11:26:52.986Z,21.20
2018-01-26T11:29:21.360Z,22.10
2018-01-26T11:31:49.734Z,23.40
2018-01-26T11:34:18.135Z,24.70
2018-01-26T11:36:46.541Z,25.90
2018-01-26T11:39:16.109Z,27.70
2018-01-26T11:41:44.488Z,27.60
2018-01-26T11:44:12.868Z,28.40
2018-01-26T11:46:41.269Z,28.60
2018-01-26T11:49:09.666Z,28.40
2018-01-26T11:51:38.102Z,28.00
2018-01-26T11:54:06.480Z,27.70
2018-01-26T11:56:34.854Z,27.70
2018-01-26T11:59:03.262Z,27.90
2018-01-26T12:01:31.645Z,28.50
2018-01-26T12:04:00.150Z,28.90
2018-01-26T12:06:29.296Z,29.60
2018-01-26T12:08:57.708Z,29.50
2018-01-26T12:11:26.082Z,29.50
2018-01-26T12:13:54.458Z,30.10
2018-01-26T12:16:22.869Z,30.90
2018-01-26T12:18:52.025Z,32.20
2018-01-26T12:21:20.437Z,32.10
2018-01-26T12:23:49.574Z,32.30
2018-01-26T12:26:17.948Z,32.30
2018-01-26T12:28:46.351Z,31.50
2018-01-26T12:31:14.737Z,31.30
2018-01-26T12:33:43.137Z,31.50
2018-01-26T12:36:11.521Z,31.70
2018-01-26T12:38:40.041Z,31.90
2018-01-26T12:41:08.421Z,32.00
2018-01-26T12:43:36.792Z,32.10
2018-01-26T12:46:05.184Z,32.10
2018-01-26T12:48:33.558Z,32.40
2018-01-26T12:51:01.969Z,32.60
2018-01-26T12:53:30.342Z,32.70
2018-01-26T12:55:59.002Z,32.60
2018-01-26T12:58:27.373Z,32.60
2018-01-26T13:00:55.776Z,32.00
2018-01-26T13:03:24.185Z,31.90
2018-01-26T13:05:52.566Z,31.90
2018-01-26T13:08:20.965Z,32.20
2018-01-26T13:10:50.111Z,31.90
2018-01-26T13:13:18.683Z,31.90
2018-01-26T13:15:47.079Z,31.60
2018-01-26T13:18:15.452Z,31.20
2018-01-26T13:20:43.854Z,30.70
2018-01-26T13:23:12.321Z,30.70
2018-01-26T13:25:40.721Z,30.80
2018-01-26T13:28:09.093Z,30.80
2018-01-26T13:30:37.845Z,30.70
2018-01-26T13:33:06.221Z,30.70
2018-01-26T13:35:34.589Z,30.90
2018-01-26T13:38:02.986Z,30.90
2018-01-26T13:40:31.360Z,31.00
2018-01-26T13:42:59.768Z,31.10
2018-01-26T13:45:28.137Z,30.70
2018-01-26T13:47:56.573Z,30.00
2018-01-26T13:50:24.941Z,29.70
2018-01-26T13:52:53.351Z,29.40
2018-01-26T13:55:21.751Z,28.60
2018-01-26T13:57:50.169Z,27.40
2018-01-26T14:00:19.376Z,24.40
2018-01-26T14:02:48.504Z,23.00
2018-01-26T14:05:17.073Z,22.90
2018-01-26T14:07:45.444Z,21.80
2018-01-26T14:10:13.806Z,20.60
2018-01-26T14:12:42.204Z,19.70
2018-01-26T14:15:10.579Z,18.80
2018-01-26T14:17:38.978Z,18.20
2018-01-26T14:20:07.366Z,18.10
2018-01-26T14:22:35.789Z,17.90
2018-01-26T14:25:04.940Z,17.30
2018-01-26T14:27:33.317Z,17.30
2018-01-26T14:30:01.716Z,16.90
2018-01-26T14:32:30.121Z,16.60
2018-01-26T14:34:59.292Z,15.90
2018-01-26T14:37:27.729Z,15.90
2018-01-26T14:39:56.902Z,15.20
2018-01-26T14:42:26.042Z,15.00
2018-01-26T14:44:54.422Z,14.90
2018-01-26T14:47:22.831Z,14.70
2018-01-26T14:49:51.217Z,14.40
2018-01-26T14:52:19.614Z,14.10
2018-01-26T14:54:48.765Z,13.40
2018-01-26T14:57:17.326Z,13.40
2018-01-26T14:59:45.705Z,13.20
2018-01-26T15:02:14.086Z,12.90
2018-01-26T15:04:42.482Z,12.60
2018-01-26T15:07:11.152Z,12.50
2018-01-26T15:09:39.574Z,12.20
2018-01-26T15:12:07.982Z,12.10
2018-01-26T15:14:36.597Z,11.90
2018-01-26T15:17:05.014Z,11.70
2018-01-26T15:19:33.394Z,11.60
2018-01-26T15:22:01.796Z,11.50
2018-01-26T15:24:30.197Z,11.30
2018-01-26T15:27:04.980Z,11.20
2018-01-26T15:29:37.785Z,11.10
2018-01-26T15:32:08.578Z,10.90
2018-01-26T15:34:38.510Z,10.90
2018-01-26T15:37:09.471Z,10.70
2018-01-26T15:39:39.093Z,10.50
2018-01-26T15:42:08.894Z,10.40
2018-01-26T15:44:38.682Z,10.30
2018-01-26T15:47:08.524Z,10.30
2018-01-26T15:49:38.543Z,10.20
2018-01-26T15:52:08.485Z,10.20
2018-01-26T15:54:38.480Z,10.10
2018-01-26T15:57:08.419Z,10.00
2018-01-26T15:59:38.057Z,10.00
2018-01-26T16:02:08.005Z,9.90
2018-01-26T16:04:37.725Z,9.80
2018-01-26T16:07:08.155Z,9.70
2018-01-26T16:09:37.382Z,9.60
2018-01-26T16:12:06.646Z,9.50
2018-01-26T16:14:37.348Z,9.50
2018-01-26T16:17:05.730Z,9.40
2018-01-26T16:19:35.072Z,9.30
2018-01-26T16:22:03.425Z,9.20
2018-01-26T16:24:32.613Z,9.20
2018-01-26T16:27:01.807Z,9.10
2018-01-26T16:29:30.935Z,9.10
2018-01-26T16:31:59.345Z,9.10
2018-01-26T16:34:27.713Z,9.00
2018-01-26T16:36:56.423Z,9.00
2018-01-26T16:39:25.581Z,8.80
2018-01-26T16:41:53.953Z,8.80
2018-01-26T16:44:22.457Z,8.70
2018-01-26T16:46:50.844Z,8.70
2018-01-26T16:49:19.701Z,8.60
2018-01-26T16:51:48.145Z,8.60
2018-01-26T16:54:17.715Z,8.50
2018-01-26T16:56:46.507Z,8.50
2018-01-26T16:59:14.971Z,8.40
2018-01-26T17:01:43.407Z,8.30
2018-01-26T17:04:12.684Z,8.30
2018-01-26T17:06:42.096Z,8.20
2018-01-26T17:09:11.249Z,8.10
2018-01-26T17:11:40.552Z,8.10
2018-01-26T17:14:09.033Z,8.10
2018-01-26T17:16:37.639Z,8.00
2018-01-26T17:19:06.832Z,8.00
2018-01-26T17:21:35.294Z,8.00
2018-01-26T17:24:03.790Z,8.10
2018-01-26T17:26:32.357Z,8.00
2018-01-26T17:29:01.130Z,8.00
2018-01-26T17:31:29.832Z,7.80
2018-01-26T17:33:58.225Z,7.80
2018-01-26T17:36:26.641Z,7.70
2018-01-26T17:38:55.934Z,7.50
2018-01-26T17:41:26.836Z,7.40
2018-01-26T17:43:55.376Z,7.40
2018-01-26T17:46:23.900Z,7.40
2018-01-26T17:48:52.295Z,7.30
2018-01-26T17:51:20.922Z,7.20
2018-01-26T17:53:49.843Z,7.10
2018-01-26T17:56:18.397Z,7.00
2018-01-26T17:58:46.802Z,7.00
2018-01-26T18:01:15.466Z,6.90
2018-01-26T18:03:44.539Z,6.80
2018-01-26T18:06:12.981Z,6.80
2018-01-26T18:08:41.663Z,6.80
2018-01-26T18:11:10.315Z,6.80
2018-01-26T18:13:38.850Z,6.90
2018-01-26T18:16:08.274Z,6.90
2018-01-26T18:18:36.675Z,6.80
2018-01-26T18:21:05.336Z,6.80
2018-01-26T18:23:33.765Z,6.80
2018-01-26T18:26:02.537Z,6.80
2018-01-26T18:28:30.956Z,6.80
2018-01-26T18:30:59.361Z,6.70
2018-01-26T18:33:28.516Z,6.60
2018-01-26T18:35:56.946Z,6.60
2018-01-26T18:38:25.641Z,6.50
2018-01-26T18:40:54.154Z,6.50
2018-01-26T18:43:22.633Z,6.40
2018-01-26T18:45:51.283Z,6.50
2018-01-26T18:48:20.268Z,6.40
2018-01-26T18:50:48.681Z,6.40
2018-01-26T18:53:17.265Z,6.40
2018-01-26T18:55:45.957Z,6.40
2018-01-26T18:58:14.421Z,6.40
2018-01-26T19:00:42.909Z,6.30
2018-01-26T19:03:11.420Z,6.20
2018-01-26T19:05:39.785Z,6.20
2018-01-26T19:08:08.195Z,6.20
2018-01-26T19:10:36.725Z,6.30
2018-01-26T19:13:05.468Z,6.30
2018-01-26T19:15:34.889Z,6.30
2018-01-26T19:18:04.038Z,6.20
2018-01-26T19:20:32.595Z,6.20
2018-01-26T19:23:01.508Z,6.10
2018-01-26T19:25:30.654Z,6.10
2018-01-26T19:27:59.543Z,6.10
2018-01-26T19:30:28.583Z,6.00
2018-01-26T19:32:57.879Z,6.00
2018-01-26T19:35:26.564Z,6.00
2018-01-26T19:37:54.982Z,6.00
2018-01-26T19:40:24.654Z,5.90
2018-01-26T19:42:54.242Z,5.90
2018-01-26T19:45:23.870Z,5.90
2018-01-26T19:47:52.859Z,5.90
2018-01-26T19:50:21.625Z,5.90
2018-01-26T19:52:50.682Z,5.80
2018-01-26T19:55:20.197Z,5.70
2018-01-26T19:57:48.972Z,5.70
2018-01-26T20:00:19.417Z,5.50
2018-01-26T20:02:48.220Z,5.50
2018-01-26T20:05:40.348Z,5.50
2018-01-26T20:08:29.333Z,5.40
2018-01-26T20:10:58.035Z,5.30
2018-01-26T20:13:28.461Z,5.30
2018-01-26T20:16:01.017Z,5.20
2018-01-26T20:18:30.076Z,5.30
2018-01-26T20:20:59.194Z,5.30
2018-01-26T20:23:28.396Z,5.40
2018-01-26T20:25:58.404Z,5.40
2018-01-26T20:28:26.953Z,5.40
2018-01-26T20:30:56.412Z,5.40
2018-01-26T20:33:27.852Z,5.40
2018-01-26T20:35:56.841Z,5.40
2018-01-26T20:38:25.956Z,5.50
2018-01-26T20:40:54.857Z,5.50
2018-01-26T20:43:24.087Z,5.60
2018-01-26T20:45:53.465Z,5.50
2018-01-26T20:48:22.500Z,5.50
2018-01-26T20:50:52.326Z,5.50
2018-01-26T20:53:21.305Z,5.50
2018-01-26T20:55:51.140Z,5.50
2018-01-26T20:58:20.369Z,5.50
2018-01-26T21:00:50.787Z,5.50
2018-01-26T21:03:19.988Z,5.50
2018-01-26T21:05:50.490Z,5.50
2018-01-26T21:08:19.650Z,5.50
2018-01-26T21:10:49.542Z,5.50
2018-01-26T21:13:19.711Z,5.50
2018-01-26T21:15:49.021Z,5.50
2018-01-26T21:18:17.888Z,5.50
2018-01-26T21:20:46.673Z,5.50
2018-01-26T21:23:15.713Z,5.50
2018-01-26T21:25:44.570Z,5.50
2018-01-26T21:28:13.338Z,5.50
2018-01-26T21:30:43.072Z,5.50
2018-01-26T21:33:12.365Z,5.40
2018-01-26T21:35:41.572Z,5.50
2018-01-26T21:38:10.389Z,5.40
2018-01-26T21:40:40.121Z,5.40
2018-01-26T21:43:08.681Z,5.30
2018-01-26T21:45:38.376Z,5.40
2018-01-26T21:48:06.940Z,5.30
2018-01-26T21:50:35.811Z,5.40
2018-01-26T21:53:05.007Z,5.40
2018-01-26T21:55:34.489Z,5.50
2018-01-26T21:58:02.943Z,5.50
2018-01-26T22:00:31.481Z,5.60
2018-01-26T22:03:01.614Z,5.70
2018-01-26T22:05:29.981Z,5.60
2018-01-26T22:07:58.417Z,5.70
2018-01-26T22:10:26.790Z,5.70
2018-01-26T22:12:55.200Z,5.70
2018-01-26T22:15:23.620Z,5.70
2018-01-26T22:17:52.041Z,5.60
2018-01-26T22:20:21.154Z,5.70
2018-01-26T22:22:49.917Z,5.70
2018-01-26T22:25:19.601Z,5.70
2018-01-26T22:27:49.554Z,5.70
2018-01-26T22:30:18.182Z,5.70
2018-01-26T22:32:51.506Z,5.70
2018-01-26T22:35:20.608Z,5.70
2018-01-26T22:37:49.010Z,5.60
2018-01-26T22:40:17.391Z,5.60
2018-01-26T22:42:45.825Z,5.60
2018-01-26T22:45:14.184Z,5.70
2018-01-26T22:47:42.566Z,5.70
2018-01-26T22:50:10.929Z,5.80
2018-01-26T22:52:40.192Z,5.80
2018-01-26T22:55:09.377Z,5.90
2018-01-26T22:57:37.909Z,5.90
2018-01-26T23:00:07.711Z,5.90
2018-01-26T23:02:37.626Z,5.90
2018-01-26T23:05:06.037Z,5.90
2018-01-26T23:07:34.960Z,5.90
2018-01-26T23:10:04.111Z,5.80
2018-01-26T23:12:32.482Z,5.80
2018-01-26T23:15:01.629Z,5.90
2018-01-26T23:17:30.045Z,5.90
2018-01-26T23:19:59.183Z,6.00
2018-01-26T23:22:27.570Z,6.00
2018-01-26T23:24:55.942Z,6.00
2018-01-26T23:27:24.741Z,5.90
2018-01-26T23:29:53.165Z,5.90
2018-01-26T23:32:22.489Z,5.90
2018-01-26T23:34:50.957Z,5.90
2018-01-26T23:37:20.142Z,5.90
2018-01-26T23:39:49.395Z,5.90
2018-01-26T23:42:17.775Z,5.90
2018-01-26T23:44:46.461Z,5.90
2018-01-26T23:47:14.914Z,5.90
2018-01-26T23:49:43.284Z,5.90
2018-01-26T23:52:11.669Z,5.90
2018-01-26T23:54:40.047Z,5.90
2018-01-26T23:57:08.458Z,5.90
2018-01-26T23:59:36.821Z,6.00
